USTRANSCOM 7530


BIKF
Keflavík International Airport
Reykjavík, IS
KWRI
Joint Base McGuire Dix Lakehurst
Wrightstown, US

Activity Log

Date Flight Route Aircraft Duration
No Flights Yet

Route Details

Aircraft Information
Primary: Boeing 757-200SF
Backup: Not Available
Route Data
Distance: 2305nm
Sched. Duration: 6h 00m
Avg. Duration: 0h 00m (-600m)
Times Flown: 0
Recm'd Route: RALOV1D RALOV RAKIS 6235N N6040 5944N 5650N YAY J580 YQY YQI J585 ACK J62 RIFLE J174 EMJAY HEADI
Planned Altitude: 34,000ft
Origin Wx: BIKF 312100Z 09007KT 9999 FEW018 BKN026 04/03 Q0980
Dest. Wx: KWRI 312056Z 11007KT 10SM BKN046 08/01 A3048 RMK AO2A SLP322 T00760010 56009
Notes: USTRANSCOM CONTRACT FLIGHT

Financial History
Total Freight: 0lbs
Average Load: 0lbs/flt
Fuel Used: 0lbs
Avg. Fuel Used: 0lbs/flt
Fuel Expense: $0
Avg. Fuel Expense: $0
Avg. Fuel Cost: $0/lbs
Total Gross Income: $0
Pilot Pay: $0
Total Expenses: $0
Total Revenue: $0
Average Revenue: $0